Terminal Aerodrome Forecast
Issued by NWS Brownsville, TX

Home | Current Version | Previous Version | Text Only | Print | Product List | Glossary On
Versions: 1 2 3 4 5 6 7 8 9 10 11 12 13 14 15 16 17
000
FTUS44 KBRO 212300 RRA
TAFBRO
TAF
KBRO 212343Z 2200/2224 14015G20KT P6SM OVC035
     FM220400 14010KT P6SM BKN025 OVC040
     FM221500 14017G26KT P6SM BKN035 OVC050
     FM221800 15022G28KT P6SM BKN050
     FM222300 16015KT P6SM BKN050=

USA.gov is the U.S. government's official web portal to all federal, state and local government web resources and services.